Time;durP1;ratioP1;P1;durP2;ratioP2;P2;SDS_P1;SDS_P2;PMS_P1;PMS_P2;Temp;Humidity;BMP_temperature;BMP_pressure;BME280_temperature;BME280_humidity;BME280_pressure;Samples;Min_cycle;Max_cycle;Signal;HPM_P1;HPM_P2
2022/01/08 00:00:29;;;;;;;92.90;41.47;;;1.00;99.90;;;;;;4972716;28;20059;-73
2022/01/08 00:02:55;;;;;;;92.30;42.22;;;1.00;99.90;;;;;;4972926;28;20069;-73
2022/01/08 00:05:21;;;;;;;111.07;49.30;;;1.00;99.90;;;;;;4972650;28;20022;-73
2022/01/08 00:07:47;;;;;;;95.05;41.47;;;1.00;99.90;;;;;;4972990;28;20080;-73
2022/01/08 00:10:13;;;;;;;91.93;41.47;;;1.10;99.90;;;;;;4972700;28;20046;-73
2022/01/08 00:12:39;;;;;;;86.50;40.05;;;1.10;99.90;;;;;;4973056;28;20484;-73
2022/01/08 00:15:06;;;;;;;95.22;42.83;;;1.10;99.90;;;;;;4972936;28;20022;-73
2022/01/08 00:17:33;;;;;;;137.05;53.03;;;1.10;99.90;;;;;;4971900;28;20030;-73
2022/01/08 00:19:59;;;;;;;79.55;37.88;;;1.20;99.90;;;;;;4972682;28;20054;-73
2022/01/08 00:22:25;;;;;;;83.00;37.60;;;1.10;99.90;;;;;;4972790;28;20118;-73
2022/01/08 00:24:52;;;;;;;286.60;87.55;;;1.10;99.90;;;;;;4972264;28;20034;-73
2022/01/08 00:27:24;;;;;;;157.73;56.13;;;1.20;99.90;;;;;;4972341;28;20110;-73
2022/01/08 00:29:50;;;;;;;;;;;1.20;99.90;;;;;;4972981;28;20181;-73
2022/01/08 00:32:16;;;;;;;133.38;48.85;;;1.20;99.90;;;;;;4972656;28;19993;-73
2022/01/08 00:34:43;;;;;;;121.90;48.58;;;1.20;99.90;;;;;;4972474;28;20027;-73
2022/01/08 00:37:09;;;;;;;98.35;42.55;;;1.20;99.90;;;;;;4972069;28;20031;-73
2022/01/08 00:39:35;;;;;;;112.97;45.30;;;1.20;99.90;;;;;;4972833;28;20080;-73
2022/01/08 00:42:01;;;;;;;103.55;43.83;;;1.30;99.90;;;;;;4972261;28;20054;-73
2022/01/08 00:44:27;;;;;;;87.22;40.60;;;1.30;99.90;;;;;;4972020;28;20023;-73
2022/01/08 00:46:53;;;;;;;126.22;49.83;;;1.30;99.90;;;;;;4972104;28;20035;-73
2022/01/08 00:49:19;;;;;;;150.57;55.45;;;1.30;99.90;;;;;;4971990;28;20126;-73
2022/01/08 00:51:44;;;;;;;159.68;61.55;;;1.40;99.90;;;;;;4972395;28;20035;-73
2022/01/08 00:54:10;;;;;;;147.02;56.70;;;1.40;99.90;;;;;;4972289;28;20038;-73
2022/01/08 00:56:36;;;;;;;282.13;89.93;;;1.40;99.90;;;;;;4972173;28;20062;-73
2022/01/08 00:59:03;;;;;;;127.95;49.97;;;1.40;99.90;;;;;;4971614;28;20122;-73
2022/01/08 01:01:29;;;;;;;94.53;41.42;;;1.50;99.90;;;;;;4972073;28;20023;-73
2022/01/08 01:03:55;;;;;;;159.52;65.53;;;1.50;99.90;;;;;;4971807;28;20034;-73
2022/01/08 01:06:21;;;;;;;169.18;70.50;;;1.50;99.90;;;;;;4971928;28;20030;-73
2022/01/08 01:08:47;;;;;;;149.75;61.33;;;1.50;99.90;;;;;;4971644;28;20034;-73
2022/01/08 01:11:12;;;;;;;141.80;60.38;;;1.50;99.90;;;;;;4972095;28;20042;-73
2022/01/08 01:13:38;;;;;;;140.70;64.07;;;1.50;99.90;;;;;;4971563;28;20394;-73
2022/01/08 01:16:04;;;;;;;128.90;59.10;;;1.50;99.90;;;;;;4971586;28;20031;-73
2022/01/08 01:18:30;;;;;;;133.77;57.97;;;1.40;99.90;;;;;;4972007;28;20113;-73
2022/01/08 01:20:57;;;;;;;126.90;56.30;;;1.40;99.90;;;;;;4971389;28;20033;-73
2022/01/08 01:23:31;;;;;;;112.97;51.70;;;1.40;99.90;;;;;;4971550;28;20026;-73
2022/01/08 01:26:01;;;;;;;111.15;52.05;;;1.40;99.90;;;;;;4971630;28;20035;-73
2022/01/08 01:29:22;;;;;;;102.68;49.63;;;1.30;99.90;;;;;;4970733;28;20460;-73
2022/01/08 01:47:19;;;;;;;147.73;69.55;;;1.30;99.90;;;;;;4972217;28;20089;-73
2022/01/08 01:49:47;;;;;;;154.27;66.40;;;1.30;99.90;;;;;;4972214;28;20058;-73
2022/01/08 01:52:15;;;;;;;128.00;56.33;;;1.30;99.90;;;;;;4972238;28;20031;-73
2022/01/08 01:54:42;;;;;;;138.63;56.15;;;1.30;99.90;;;;;;4971849;28;20049;-73
2022/01/08 01:57:10;;;;;;;129.60;53.95;;;1.30;99.90;;;;;;4971466;28;20041;-73
2022/01/08 01:59:39;;;;;;;121.28;53.05;;;1.30;99.90;;;;;;4971877;28;20118;-73
2022/01/08 02:02:05;;;;;;;134.40;55.10;;;1.30;99.90;;;;;;4971646;28;20041;-73
2022/01/08 02:04:31;;;;;;;166.48;62.75;;;1.30;99.90;;;;;;4971974;28;20114;-73
2022/01/08 02:06:58;;;;;;;187.48;63.47;;;1.30;99.90;;;;;;4972054;28;20389;-73
2022/01/08 02:09:24;;;;;;;141.88;57.00;;;1.30;99.90;;;;;;4971573;28;20462;-73
2022/01/08 02:12:01;;;;;;;135.90;53.60;;;1.30;99.90;;;;;;4971621;28;20478;-73
2022/01/08 02:14:29;;;;;;;101.43;49.33;;;1.40;99.90;;;;;;4972057;28;20531;-74
2022/01/08 02:16:55;;;;;;;109.72;48.65;;;1.40;99.90;;;;;;4971356;28;20069;-74
2022/01/08 02:19:21;;;;;;;109.53;49.88;;;1.40;99.90;;;;;;4971849;28;20386;-73
2022/01/08 02:21:52;;;;;;;172.43;79.65;;;1.50;99.90;;;;;;4971351;28;20482;-73
2022/01/08 02:24:18;;;;;;;178.07;85.28;;;1.50;99.90;;;;;;4971919;28;20098;-73
2022/01/08 02:26:44;;;;;;;252.38;96.63;;;1.50;99.90;;;;;;4971431;28;20401;-73
2022/01/08 02:29:14;;;;;;;198.05;82.63;;;1.50;99.90;;;;;;4971602;28;20031;-73
2022/01/08 02:31:40;;;;;;;236.45;92.18;;;1.60;99.90;;;;;;4971462;28;20023;-73
2022/01/08 02:34:06;;;;;;;224.65;87.50;;;1.60;99.90;;;;;;4970946;28;20485;-73
2022/01/08 02:36:33;;;;;;;124.07;56.28;;;1.70;99.90;;;;;;4971093;28;20110;-73
2022/01/08 02:38:59;;;;;;;139.43;61.47;;;1.70;99.90;;;;;;4971758;28;20038;-73
2022/01/08 02:41:27;;;;;;;121.70;58.63;;;1.70;99.90;;;;;;4974315;28;20473;-73
2022/01/08 02:43:53;;;;;;;117.57;56.67;;;1.60;99.90;;;;;;4974776;28;20054;-73
2022/01/08 02:46:22;;;;;;;120.90;55.35;;;1.50;99.90;;;;;;4974884;28;20031;-73
2022/01/08 02:48:48;;;;;;;116.68;56.33;;;1.40;99.90;;;;;;4974539;28;20042;-73
2022/01/08 02:51:14;;;;;;;120.40;54.85;;;1.40;99.90;;;;;;4974438;28;20034;-74
2022/01/08 02:53:40;;;;;;;113.07;53.65;;;1.40;99.90;;;;;;4974855;28;20482;-73
2022/01/08 02:56:06;;;;;;;121.55;55.63;;;1.40;99.90;;;;;;4974629;28;20027;-73
2022/01/08 02:58:33;;;;;;;117.78;54.60;;;1.40;99.90;;;;;;4974365;28;20031;-73
2022/01/08 03:00:59;;;;;;;116.40;55.63;;;1.30;99.90;;;;;;4974679;28;20035;-73
2022/01/08 03:03:25;;;;;;;112.80;54.85;;;1.30;99.90;;;;;;4974874;28;20092;-73
2022/01/08 03:05:51;;;;;;;111.13;55.60;;;1.30;99.90;;;;;;4974193;28;20458;-73
2022/01/08 03:08:17;;;;;;;117.28;58.65;;;1.20;99.90;;;;;;4973880;28;20053;-73
2022/01/08 03:10:43;;;;;;;124.75;57.20;;;1.20;99.90;;;;;;4974161;28;20039;-74
2022/01/08 03:13:08;;;;;;;125.05;60.10;;;1.20;99.90;;;;;;4974313;28;20080;-73
2022/01/08 03:15:37;;;;;;;124.13;57.70;;;1.20;99.90;;;;;;4974512;28;20027;-73
2022/01/08 03:18:04;;;;;;;125.78;58.70;;;1.20;99.90;;;;;;4973987;28;20042;-73
2022/01/08 03:20:30;;;;;;;129.75;61.20;;;1.10;99.90;;;;;;4974655;28;20057;-73
2022/01/08 03:23:02;;;;;;;135.88;61.63;;;1.00;99.90;;;;;;4974349;28;20031;-74
2022/01/08 03:25:29;;;;;;;130.25;60.70;;;1.10;99.90;;;;;;4974218;28;20106;-73
2022/01/08 03:27:55;;;;;;;140.00;66.40;;;1.10;99.90;;;;;;4974333;28;20117;-73
2022/01/08 03:30:23;;;;;;;121.97;62.00;;;1.10;99.90;;;;;;4973935;28;20037;-73
2022/01/08 03:32:48;;;;;;;135.88;68.63;;;1.10;99.90;;;;;;4973828;28;20474;-73
2022/01/08 03:35:14;;;;;;;118.95;58.92;;;1.10;99.90;;;;;;4973873;28;20031;-73
2022/01/08 03:37:40;;;;;;;116.18;58.00;;;1.10;99.90;;;;;;4974005;28;20038;-73
2022/01/08 03:40:07;;;;;;;112.88;59.22;;;1.10;99.90;;;;;;4973931;28;20038;-74
2022/01/08 03:42:33;;;;;;;116.63;58.00;;;1.10;99.90;;;;;;4974031;28;20047;-74
2022/01/08 03:44:59;;;;;;;118.45;57.30;;;1.20;99.90;;;;;;4973799;28;20050;-73
2022/01/08 03:49:54;;;;;;;122.75;60.72;;;1.20;99.90;;;;;;4973800;28;20026;-74
2022/01/08 03:52:20;;;;;;;143.40;67.07;;;1.20;99.90;;;;;;4973221;28;20393;-73
2022/01/08 03:54:46;;;;;;;128.07;66.18;;;1.20;99.90;;;;;;4973488;28;20034;-73
2022/01/08 03:57:12;;;;;;;125.45;60.80;;;1.20;99.90;;;;;;4973815;28;20023;-74
2022/01/08 03:59:37;;;;;;;146.25;63.85;;;1.20;99.90;;;;;;4973886;28;20039;-74
2022/01/08 04:02:04;;;;;;;127.60;59.45;;;1.20;99.90;;;;;;4973650;28;20034;-73
2022/01/08 04:04:29;;;;;;;134.90;60.17;;;1.10;99.90;;;;;;4973799;28;20509;-74
2022/01/08 04:06:55;;;;;;;126.05;57.20;;;1.20;99.90;;;;;;4973625;28;20109;-74
2022/01/08 04:09:21;;;;;;;135.95;62.17;;;1.20;99.90;;;;;;4973643;28;20042;-74
2022/01/08 04:11:47;;;;;;;142.25;65.03;;;1.20;99.90;;;;;;4973721;28;20037;-74
2022/01/08 04:14:15;;;;;;;123.22;56.03;;;1.20;99.90;;;;;;4973560;28;20038;-74
2022/01/08 04:16:45;;;;;;;126.07;59.33;;;1.10;99.90;;;;;;4973597;28;20050;-73
2022/01/08 04:19:11;;;;;;;130.85;60.58;;;1.10;99.90;;;;;;4973504;28;20113;-74
2022/01/08 04:24:07;;;;;;;139.27;65.32;;;1.00;99.90;;;;;;4973577;28;20085;-74
2022/01/08 04:26:32;;;;;;;131.50;63.95;;;0.90;99.90;;;;;;4973386;28;20030;-74
2022/01/08 04:28:59;;;;;;;133.57;63.28;;;1.00;99.90;;;;;;4972973;28;20039;-74
2022/01/08 04:31:25;;;;;;;120.95;59.30;;;1.00;99.90;;;;;;4973084;28;20023;-74
2022/01/08 04:33:52;;;;;;;114.95;59.10;;;1.10;99.90;;;;;;4973421;28;20114;-74
2022/01/08 04:36:18;;;;;;;128.00;63.15;;;1.00;99.90;;;;;;4972917;28;20080;-74
2022/01/08 04:38:44;;;;;;;130.07;61.97;;;1.00;99.90;;;;;;4973254;28;20070;-74
2022/01/08 04:41:10;;;;;;;110.13;56.78;;;1.10;99.90;;;;;;4973026;28;20055;-74
2022/01/08 04:43:38;;;;;;;128.60;60.67;;;1.10;99.90;;;;;;4972690;28;20116;-74
2022/01/08 04:46:04;;;;;;;122.80;56.95;;;1.10;99.90;;;;;;4973021;28;20121;-75
2022/01/08 04:48:30;;;;;;;114.80;57.42;;;1.10;99.90;;;;;;4973186;28;20106;-75
2022/01/08 04:50:56;;;;;;;134.35;62.08;;;1.20;99.90;;;;;;4972675;28;20437;-74
2022/01/08 04:53:22;;;;;;;125.85;62.42;;;1.10;99.90;;;;;;4972622;28;20027;-74
2022/01/08 04:55:48;;;;;;;134.10;65.15;;;1.20;99.90;;;;;;4972682;28;20027;-74
2022/01/08 04:58:14;;;;;;;135.48;65.18;;;1.20;99.90;;;;;;4972581;28;20485;-74
2022/01/08 05:00:40;;;;;;;138.32;67.25;;;1.10;99.90;;;;;;4972882;28;20066;-74
2022/01/08 05:03:06;;;;;;;138.50;63.22;;;1.10;99.90;;;;;;4972012;28;20031;-74
2022/01/08 05:05:32;;;;;;;126.32;59.10;;;1.10;99.90;;;;;;4972275;28;20536;-74
2022/01/08 05:07:58;;;;;;;133.02;61.13;;;1.10;99.90;;;;;;4972969;28;20027;-74
2022/01/08 05:10:23;;;;;;;136.43;65.57;;;1.10;99.90;;;;;;4972506;28;20034;-74
2022/01/08 05:12:49;;;;;;;145.75;62.30;;;1.10;99.90;;;;;;4972831;28;20034;-74
2022/01/08 05:15:16;;;;;;;143.88;68.07;;;1.20;99.90;;;;;;4972469;28;20038;-74
2022/01/08 05:17:44;;;;;;;136.60;64.88;;;1.20;99.90;;;;;;4972562;28;20030;-74
2022/01/08 05:20:13;;;;;;;138.85;67.70;;;1.20;99.90;;;;;;4971673;28;20045;-74
2022/01/08 05:25:19;;;;;;;120.50;56.85;;;1.20;99.90;;;;;;4972481;28;20031;-74
2022/01/08 05:27:46;;;;;;;127.03;59.25;;;1.10;99.90;;;;;;4972498;28;20031;-75
2022/01/08 05:30:15;;;;;;;129.07;64.55;;;1.20;99.90;;;;;;4972243;28;20126;-74
2022/01/08 05:32:41;;;;;;;141.55;69.50;;;1.20;99.90;;;;;;4972110;28;20023;-75
2022/01/08 05:35:07;;;;;;;149.88;74.68;;;1.20;99.90;;;;;;4972095;28;20454;-74
2022/01/08 05:37:33;;;;;;;149.77;74.65;;;1.10;99.90;;;;;;4970976;28;20031;-73
2022/01/08 05:39:59;;;;;;;142.55;65.97;;;1.10;99.90;;;;;;4972072;28;20088;-74
2022/01/08 05:42:24;;;;;;;125.70;59.35;;;1.00;99.90;;;;;;4971774;28;20094;-74
2022/01/08 05:44:50;;;;;;;123.95;58.92;;;1.00;99.90;;;;;;4972316;28;20062;-74
2022/01/08 05:47:16;;;;;;;130.15;65.68;;;0.90;99.90;;;;;;4972334;28;20030;-74
2022/01/08 05:49:42;;;;;;;114.47;57.55;;;0.90;99.90;;;;;;4972014;28;20367;-75
2022/01/08 05:52:08;;;;;;;197.20;87.18;;;0.90;99.90;;;;;;4972176;28;20038;-74
2022/01/08 05:54:34;;;;;;;238.40;107.63;;;0.90;99.90;;;;;;4972090;28;20038;-73
2022/01/08 05:57:00;;;;;;;124.75;62.65;;;0.90;99.90;;;;;;4972099;28;20523;-74
2022/01/08 05:59:27;;;;;;;131.23;63.70;;;0.90;99.90;;;;;;4971669;28;20031;-74
2022/01/08 06:01:56;;;;;;;149.68;75.60;;;1.00;99.90;;;;;;4972043;28;20164;-74
2022/01/08 06:04:22;;;;;;;133.43;64.40;;;0.90;99.90;;;;;;4972054;28;20080;-74
2022/01/08 06:06:48;;;;;;;150.63;67.57;;;0.90;99.90;;;;;;4972049;28;20106;-74
2022/01/08 06:09:13;;;;;;;156.77;71.32;;;0.90;99.90;;;;;;4972130;28;20126;-74
2022/01/08 06:11:39;;;;;;;160.57;73.03;;;0.90;99.90;;;;;;4972188;28;20066;-74
2022/01/08 06:14:05;;;;;;;145.07;68.35;;;0.90;99.90;;;;;;4972108;28;20027;-74
2022/01/08 06:16:34;;;;;;;192.07;95.35;;;0.90;99.90;;;;;;4977072;28;20033;-74
2022/01/08 06:19:05;;;;;;;175.63;84.35;;;0.90;99.90;;;;;;4978055;28;20038;-73
2022/01/08 06:21:31;;;;;;;176.75;85.68;;;1.00;99.90;;;;;;4978259;28;20033;-74
2022/01/08 06:23:58;;;;;;;181.35;82.88;;;1.00;99.90;;;;;;4978111;28;20039;-73
2022/01/08 06:26:23;;;;;;;192.98;91.55;;;1.00;99.90;;;;;;4978012;28;20076;-74
2022/01/08 06:28:51;;;;;;;222.48;97.63;;;1.00;99.90;;;;;;4977892;28;20027;-74
2022/01/08 06:31:19;;;;;;;189.75;86.57;;;1.00;99.90;;;;;;4977967;28;20446;-74
2022/01/08 06:33:45;;;;;;;184.07;87.10;;;1.00;99.90;;;;;;4977867;28;20035;-76
2022/01/08 06:36:11;;;;;;;193.60;92.63;;;1.00;99.90;;;;;;4977139;28;20410;-74
2022/01/08 06:38:37;;;;;;;225.93;114.00;;;1.00;99.90;;;;;;4978427;28;20035;-74
2022/01/08 06:41:03;;;;;;;152.30;80.28;;;1.00;99.90;;;;;;4977877;28;20393;-74
2022/01/08 06:43:29;;;;;;;231.15;120.75;;;1.00;99.90;;;;;;4976712;28;20078;-74
2022/01/08 06:45:54;;;;;;;332.23;189.50;;;1.00;99.90;;;;;;4975810;28;20023;-74
2022/01/08 06:48:20;;;;;;;174.77;93.20;;;1.00;99.90;;;;;;4976847;28;20023;-74
2022/01/08 06:50:46;;;;;;;148.88;75.82;;;1.00;99.90;;;;;;4976990;28;20595;-74
2022/01/08 06:53:12;;;;;;;177.05;85.03;;;0.90;99.90;;;;;;4976694;28;20026;-74
2022/01/08 06:55:38;;;;;;;189.15;86.95;;;0.90;99.90;;;;;;4977091;28;20084;-73
2022/01/08 06:58:03;;;;;;;278.23;120.22;;;0.90;99.90;;;;;;4977790;28;20039;-74
2022/01/08 07:00:29;;;;;;;165.85;74.95;;;0.90;99.90;;;;;;4977771;28;20035;-74
2022/01/08 07:02:55;;;;;;;147.68;75.00;;;0.80;99.90;;;;;;4977944;28;20038;-74
2022/01/08 07:05:21;;;;;;;168.10;81.30;;;0.80;99.90;;;;;;4977631;28;20023;-74
2022/01/08 07:07:46;;;;;;;163.25;85.18;;;0.90;99.90;;;;;;4978167;28;20053;-74
2022/01/08 07:10:12;;;;;;;180.45;95.75;;;0.90;99.90;;;;;;4977700;28;20085;-74
2022/01/08 07:12:38;;;;;;;225.07;116.75;;;0.80;99.90;;;;;;4977919;28;20035;-74
2022/01/08 07:15:04;;;;;;;167.27;84.00;;;0.90;99.90;;;;;;4977895;28;20076;-74
2022/01/08 07:17:30;;;;;;;162.88;88.40;;;0.90;99.90;;;;;;4977630;28;20037;-74
2022/01/08 07:19:56;;;;;;;180.57;95.40;;;0.80;99.90;;;;;;4977742;28;20030;-74
2022/01/08 07:22:22;;;;;;;211.65;95.95;;;0.90;99.90;;;;;;4977773;28;20030;-74
2022/01/08 07:24:47;;;;;;;320.85;136.50;;;0.90;99.90;;;;;;4977236;28;20035;-74
2022/01/08 07:27:13;;;;;;;318.27;137.50;;;0.90;99.90;;;;;;4974460;28;20444;-74
2022/01/08 07:29:39;;;;;;;428.70;197.40;;;1.00;99.90;;;;;;4974277;28;20027;-75
2022/01/08 07:32:05;;;;;;;386.95;185.18;;;1.00;99.90;;;;;;4974152;28;20038;-75
2022/01/08 07:34:31;;;;;;;262.75;125.55;;;1.00;99.90;;;;;;4974175;28;20023;-74
2022/01/08 07:36:57;;;;;;;202.63;95.95;;;1.00;99.90;;;;;;4973814;28;20386;-74
2022/01/08 07:39:23;;;;;;;221.38;106.20;;;1.00;99.90;;;;;;4974234;28;20038;-75
2022/01/08 07:41:49;;;;;;;248.68;119.55;;;1.00;99.90;;;;;;4973793;28;20054;-74
2022/01/08 07:44:15;;;;;;;178.55;88.97;;;1.00;99.90;;;;;;4973966;28;20033;-75
2022/01/08 07:46:40;;;;;;;192.98;97.03;;;0.90;99.90;;;;;;4974200;28;20033;-75
2022/01/08 07:49:06;;;;;;;161.23;84.85;;;0.90;99.90;;;;;;4973880;28;20031;-74
2022/01/08 07:51:32;;;;;;;169.20;83.25;;;0.90;99.90;;;;;;4973817;28;20034;-75
2022/01/08 07:53:57;;;;;;;154.40;83.25;;;1.00;99.90;;;;;;4974331;28;20030;-74
2022/01/08 07:56:23;;;;;;;146.90;78.32;;;1.00;99.90;;;;;;4973466;28;20031;-75
2022/01/08 07:58:49;;;;;;;146.82;77.25;;;1.00;99.90;;;;;;4973602;28;20054;-74
2022/01/08 08:01:15;;;;;;;153.90;80.57;;;1.00;99.90;;;;;;4973523;28;20058;-75
2022/01/08 08:03:41;;;;;;;160.57;80.93;;;1.00;99.90;;;;;;4973896;28;20054;-74
2022/01/08 08:06:11;;;;;;;164.65;83.63;;;1.00;99.90;;;;;;4973483;28;20027;-75
2022/01/08 08:08:36;;;;;;;157.80;81.72;;;1.10;99.90;;;;;;4973584;28;20066;-75
2022/01/08 08:11:02;;;;;;;188.43;92.68;;;1.10;99.90;;;;;;4973838;28;20447;-74
2022/01/08 08:13:28;;;;;;;179.48;88.85;;;1.10;99.90;;;;;;4973743;28;20031;-74
2022/01/08 08:15:54;;;;;;;188.05;92.68;;;1.20;99.90;;;;;;4973367;28;20080;-74
2022/01/08 08:18:20;;;;;;;168.13;86.55;;;1.10;99.90;;;;;;4973696;28;20038;-75
2022/01/08 08:20:46;;;;;;;156.18;78.40;;;1.10;99.90;;;;;;4973373;28;20109;-75
2022/01/08 08:23:12;;;;;;;332.50;128.45;;;1.10;99.90;;;;;;4973488;28;20034;-75
2022/01/08 08:25:38;;;;;;;258.58;108.70;;;1.10;99.90;;;;;;4973520;28;20035;-75
2022/01/08 08:28:05;;;;;;;164.10;80.13;;;1.20;99.90;;;;;;4973313;28;20033;-75
2022/01/08 08:30:33;;;;;;;136.00;72.10;;;1.20;99.90;;;;;;4973179;28;20105;-74
2022/01/08 08:32:59;;;;;;;131.60;66.10;;;1.10;99.90;;;;;;4973418;28;20113;-74
2022/01/08 08:35:25;;;;;;;142.05;72.53;;;1.10;99.90;;;;;;4973107;28;20422;-75
2022/01/08 08:37:51;;;;;;;166.63;82.30;;;1.10;99.90;;;;;;4973235;28;20092;-75
2022/01/08 08:40:17;;;;;;;170.10;88.55;;;1.10;99.90;;;;;;4972575;28;20027;-75
2022/01/08 08:42:43;;;;;;;230.30;110.70;;;1.20;99.90;;;;;;4972930;28;20126;-74
2022/01/08 08:45:10;;;;;;;181.48;91.68;;;1.30;99.90;;;;;;4972806;28;20367;-74
2022/01/08 08:47:36;;;;;;;149.45;78.25;;;1.30;99.90;;;;;;4972838;28;20031;-74
2022/01/08 08:50:04;;;;;;;161.15;80.53;;;1.30;99.90;;;;;;4972746;28;20409;-74
2022/01/08 08:52:29;;;;;;;136.00;71.75;;;1.30;99.90;;;;;;4972932;28;20037;-74
2022/01/08 08:54:55;;;;;;;146.38;76.30;;;1.40;99.90;;;;;;4972853;28;20034;-74
2022/01/08 08:57:21;;;;;;;154.48;77.05;;;1.30;99.90;;;;;;4972681;28;20106;-73
2022/01/08 08:59:47;;;;;;;164.00;82.82;;;1.30;99.90;;;;;;4972738;28;20062;-74
2022/01/08 09:02:12;;;;;;;245.93;132.38;;;1.30;99.90;;;;;;4972716;28;20089;-74
2022/01/08 09:04:40;;;;;;;164.57;87.90;;;1.40;99.90;;;;;;4972770;28;20109;-74
2022/01/08 09:07:06;;;;;;;143.05;72.55;;;1.30;99.90;;;;;;4972815;28;20023;-74
2022/01/08 09:09:32;;;;;;;189.95;93.18;;;1.30;99.90;;;;;;4972249;28;20042;-74
2022/01/08 09:11:58;;;;;;;162.10;79.25;;;1.30;99.90;;;;;;4972700;28;20031;-74
2022/01/08 09:14:23;;;;;;;149.73;80.20;;;1.40;99.90;;;;;;4972835;28;20023;-74
2022/01/08 09:16:52;;;;;;;557.58;250.27;;;1.40;99.90;;;;;;4972490;28;20031;-74
2022/01/08 09:19:18;;;;;;;495.38;212.48;;;1.20;99.90;;;;;;4972519;28;20138;-73
2022/01/08 09:21:45;;;;;;;275.67;120.53;;;1.20;99.90;;;;;;4972366;28;20040;-73
2022/01/08 09:24:12;;;;;;;141.80;72.18;;;1.30;99.90;;;;;;4972593;28;20104;-74
2022/01/08 09:26:38;;;;;;;135.05;66.10;;;1.30;99.90;;;;;;4972459;28;20027;-73
2022/01/08 09:29:04;;;;;;;156.02;76.07;;;1.30;99.90;;;;;;4972192;28;20035;-74
2022/01/08 09:31:31;;;;;;;145.18;71.07;;;1.40;99.90;;;;;;4972400;28;20031;-74
2022/01/08 09:33:56;;;;;;;148.52;77.07;;;1.40;99.90;;;;;;4972414;28;20462;-74
2022/01/08 09:36:22;;;;;;;145.68;67.95;;;1.50;99.90;;;;;;4971794;28;20027;-74
2022/01/08 09:38:49;;;;;;;126.00;58.85;;;1.50;99.90;;;;;;4972355;28;20050;-74
2022/01/08 09:41:16;;;;;;;121.68;55.63;;;1.40;99.90;;;;;;4971841;28;20043;-75
2022/01/08 09:43:42;;;;;;;167.50;75.55;;;1.30;99.90;;;;;;4971670;28;20043;-76
2022/01/08 09:46:08;;;;;;;160.23;78.53;;;1.30;99.90;;;;;;4971939;28;20026;-75
2022/01/08 09:48:34;;;;;;;164.18;72.30;;;1.30;99.90;;;;;;4973356;28;20038;-74
2022/01/08 09:51:00;;;;;;;173.15;78.38;;;1.30;99.90;;;;;;4970815;28;20046;-74
2022/01/08 09:53:26;;;;;;;225.02;107.00;;;1.30;99.90;;;;;;4972049;28;20089;-75
2022/01/08 09:55:52;;;;;;;222.45;109.53;;;1.30;99.90;;;;;;4972190;28;20031;-73
2022/01/08 09:58:18;;;;;;;194.40;96.88;;;1.30;99.90;;;;;;4969658;28;20037;-74
2022/01/08 10:00:45;;;;;;;162.95;80.03;;;1.40;99.90;;;;;;4970395;28;20462;-74
2022/01/08 10:03:31;;;;;;;117.10;61.25;;;1.40;99.90;;;;;;4970030;28;20663;-74
2022/01/08 10:06:01;;;;;;;129.77;63.28;;;1.30;99.90;;;;;;4971085;28;20080;-74
2022/01/08 10:08:31;;;;;;;130.73;61.42;;;1.30;99.90;;;;;;4971919;28;20102;-74
2022/01/08 10:11:07;;;;;;;157.48;77.00;;;1.20;99.90;;;;;;4971939;28;20057;-74
2022/01/08 10:13:36;;;;;;;135.98;63.45;;;1.20;99.90;;;;;;4971562;28;20035;-74
2022/01/08 10:18:47;;;;;;;141.38;67.65;;;1.20;99.90;;;;;;4971820;28;20114;-74
2022/01/08 10:21:23;;;;;;;126.05;59.85;;;1.20;99.90;;;;;;4971984;28;20054;-73
2022/01/08 10:23:54;;;;;;;138.05;65.38;;;1.20;99.90;;;;;;4972249;28;20035;-74
2022/01/08 10:26:22;;;;;;;129.05;63.47;;;1.20;99.90;;;;;;4971650;28;20110;-74
2022/01/08 10:28:58;;;;;;;133.02;67.15;;;1.20;99.90;;;;;;4971779;28;20088;-74
2022/01/08 10:31:28;;;;;;;140.18;70.80;;;1.20;99.90;;;;;;4972019;28;20490;-74
2022/01/08 10:34:09;;;;;;;154.65;77.50;;;1.20;99.90;;;;;;4971324;28;20598;-73
2022/01/08 10:36:42;;;;;;;148.70;73.45;;;1.20;99.90;;;;;;4971741;28;20504;-73
2022/01/08 10:39:35;;;;;;;150.02;73.35;;;1.30;99.90;;;;;;4971669;28;20084;-73
2022/01/08 10:42:16;;;;;;;162.55;74.32;;;1.30;99.90;;;;;;4971699;28;20074;-74
2022/01/08 10:44:43;;;;;;;188.93;86.13;;;1.30;99.90;;;;;;4971870;28;20120;-73
2022/01/08 10:47:16;;;;;;;176.95;83.45;;;1.30;99.90;;;;;;4971656;28;20118;-73
2022/01/08 10:50:00;;;;;;;189.15;89.43;;;1.30;99.90;;;;;;4971576;28;20093;-73
2022/01/08 10:52:27;;;;;;;224.55;102.18;;;1.30;99.90;;;;;;4971686;28;20042;-73
2022/01/08 10:55:01;;;;;;;236.07;107.25;;;1.30;99.90;;;;;;4971473;28;20042;-73
2022/01/08 10:57:35;;;;;;;200.43;94.20;;;1.40;99.90;;;;;;4971449;28;20030;-74
2022/01/08 11:00:02;;;;;;;179.25;87.80;;;1.50;99.90;;;;;;4971013;28;20027;-74
2022/01/08 11:02:29;;;;;;;155.93;77.88;;;1.40;99.90;;;;;;4973842;28;20401;-74
2022/01/08 11:04:55;;;;;;;188.13;94.38;;;1.50;99.90;;;;;;4974964;28;20117;-74
2022/01/08 11:07:27;;;;;;;175.90;85.13;;;1.50;99.90;;;;;;4974683;28;20031;-74
2022/01/08 11:09:54;;;;;;;;;;;1.40;99.90;;;;;;4974947;28;20035;-74
2022/01/08 11:12:29;;;;;;;145.77;72.97;;;1.40;99.90;;;;;;4974689;28;19910;-74
2022/01/08 11:15:25;;;;;;;151.30;77.72;;;1.40;99.90;;;;;;4974272;28;20023;-75
2022/01/08 11:17:59;;;;;;;147.60;75.18;;;1.30;99.90;;;;;;4974505;28;20062;-74
2022/01/08 11:20:29;;;;;;;157.43;79.45;;;1.40;99.90;;;;;;4974098;28;20039;-74
2022/01/08 11:22:57;;;;;;;222.48;105.65;;;1.40;99.90;;;;;;4974069;28;20042;-74
2022/01/08 11:25:35;;;;;;;254.30;115.93;;;1.40;99.90;;;;;;4974339;28;20112;-74
2022/01/08 11:28:03;;;;;;;247.07;114.13;;;1.40;99.90;;;;;;4974261;28;20106;-74
2022/01/08 11:30:35;;;;;;;245.05;110.03;;;1.40;99.90;;;;;;4974287;28;20042;-75
2022/01/08 11:33:08;;;;;;;188.93;94.43;;;1.40;99.90;;;;;;4974362;28;20085;-74
2022/01/08 11:35:36;;;;;;;183.48;94.53;;;1.40;99.90;;;;;;4973907;28;20035;-74
2022/01/08 11:38:06;;;;;;;164.10;81.00;;;1.50;99.90;;;;;;4974272;28;20030;-74
2022/01/08 11:40:32;;;;;;;151.60;77.20;;;1.50;99.90;;;;;;4974378;28;20046;-74
2022/01/08 11:43:04;;;;;;;182.45;98.70;;;1.50;99.90;;;;;;4973888;28;20150;-75
2022/01/08 11:45:34;;;;;;;207.75;109.72;;;1.50;99.90;;;;;;4974133;28;20023;-74
2022/01/08 11:48:02;;;;;;;136.75;70.55;;;1.50;99.90;;;;;;4974172;28;20466;-75
2022/01/08 11:50:30;;;;;;;135.65;70.28;;;1.50;99.90;;;;;;4973805;28;20027;-74
2022/01/08 11:53:27;;;;;;;162.05;88.00;;;1.50;99.90;;;;;;4973853;28;20031;-74
2022/01/08 11:55:58;;;;;;;167.90;92.70;;;1.50;99.90;;;;;;4973484;28;20202;-74
2022/01/08 11:58:42;;;;;;;129.63;67.53;;;1.50;99.90;;;;;;4973974;28;20029;-74
2022/01/08 12:01:14;;;;;;;123.05;63.50;;;1.50;99.90;;;;;;4973680;28;20381;-74
2022/01/08 12:03:52;;;;;;;125.20;64.57;;;1.40;99.90;;;;;;4973676;28;20507;-74
2022/01/08 12:09:19;;;;;;;123.63;60.65;;;1.40;99.90;;;;;;4973736;28;20030;-73
2022/01/08 12:11:44;;;;;;;187.35;88.53;;;1.30;99.90;;;;;;4973238;28;20397;-73
2022/01/08 12:14:12;;;;;;;209.80;105.15;;;1.30;99.90;;;;;;4972916;28;20027;-73
2022/01/08 12:16:40;;;;;;;156.40;80.72;;;1.40;99.90;;;;;;4973405;28;20041;-73
2022/01/08 12:19:08;;;;;;;183.18;91.00;;;1.30;99.90;;;;;;4973512;28;20073;-73
2022/01/08 12:21:42;;;;;;;199.55;99.45;;;1.30;99.90;;;;;;4973089;28;20053;-73
2022/01/08 12:24:26;;;;;;;201.60;92.47;;;1.40;99.90;;;;;;4973178;28;20381;-74
2022/01/08 12:27:00;;;;;;;157.38;75.35;;;1.40;99.90;;;;;;4973545;28;20030;-74
2022/01/08 12:29:35;;;;;;;201.68;100.93;;;1.30;99.90;;;;;;4973057;28;20042;-74
2022/01/08 12:32:40;;;;;;;234.40;113.32;;;1.40;99.90;;;;;;4972991;28;20033;-74
2022/01/08 12:37:49;;;;;;;150.90;67.83;;;1.40;99.90;;;;;;4973286;28;20035;-74
2022/01/08 12:40:45;;;;;;;135.02;63.60;;;1.30;99.90;;;;;;4972992;28;20046;-74
2022/01/08 12:43:37;;;;;;;125.82;59.30;;;1.30;99.90;;;;;;4973108;28;20058;-74
2022/01/08 12:46:24;;;;;;;127.82;62.40;;;1.30;99.90;;;;;;4972805;28;20035;-74
2022/01/08 12:49:14;;;;;;;151.10;75.07;;;1.30;99.90;;;;;;4972848;28;20110;-74
2022/01/08 12:51:49;;;;;;;196.43;97.05;;;1.40;99.90;;;;;;4972838;28;20062;-74
2022/01/08 12:54:17;;;;;;;211.65;101.22;;;1.40;99.90;;;;;;4973135;28;20035;-74
2022/01/08 12:56:48;;;;;;;204.07;98.05;;;1.40;99.90;;;;;;4972994;28;20119;-73
2022/01/08 12:59:15;;;;;;;189.27;89.20;;;1.40;99.90;;;;;;4972570;28;20129;-73
2022/01/08 13:01:44;;;;;;;272.67;128.95;;;1.40;99.90;;;;;;4973266;28;20505;-74